sensor_id;sensor_type;location;lat;lon;timestamp;P1;durP1;ratioP1;P2;durP2;ratioP2
7195;SDS011;3639;51.308;5.624;2022-08-21T00:01:58;3.63;;;3.33;;
7195;SDS011;3639;51.308;5.624;2022-08-21T00:04:23;3.20;;;2.90;;
7195;SDS011;3639;51.308;5.624;2022-08-21T00:06:50;3.40;;;2.63;;
7195;SDS011;3639;51.308;5.624;2022-08-21T00:09:17;4.73;;;2.80;;
7195;SDS011;3639;51.308;5.624;2022-08-21T00:11:44;3.20;;;2.90;;
7195;SDS011;3639;51.308;5.624;2022-08-21T00:14:10;3.83;;;3.00;;
7195;SDS011;3639;51.308;5.624;2022-08-21T00:16:37;3.13;;;2.70;;
7195;SDS011;3639;51.308;5.624;2022-08-21T00:19:03;5.20;;;2.97;;
7195;SDS011;3639;51.308;5.624;2022-08-21T00:21:29;5.60;;;3.27;;
7195;SDS011;3639;51.308;5.624;2022-08-21T00:23:55;4.40;;;3.27;;
7195;SDS011;3639;51.308;5.624;2022-08-21T00:26:20;6.23;;;3.90;;
7195;SDS011;3639;51.308;5.624;2022-08-21T00:28:46;5.73;;;3.40;;
7195;SDS011;3639;51.308;5.624;2022-08-21T00:31:13;5.73;;;3.63;;
7195;SDS011;3639;51.308;5.624;2022-08-21T00:33:40;7.80;;;3.77;;
7195;SDS011;3639;51.308;5.624;2022-08-21T00:36:06;3.40;;;3.10;;
7195;SDS011;3639;51.308;5.624;2022-08-21T00:38:32;6.40;;;3.33;;
7195;SDS011;3639;51.308;5.624;2022-08-21T00:40:58;5.17;;;4.07;;
7195;SDS011;3639;51.308;5.624;2022-08-21T00:43:28;4.57;;;3.67;;
7195;SDS011;3639;51.308;5.624;2022-08-21T00:45:57;5.07;;;3.57;;
7195;SDS011;3639;51.308;5.624;2022-08-21T00:48:23;7.73;;;4.27;;
7195;SDS011;3639;51.308;5.624;2022-08-21T00:51:12;6.70;;;3.77;;
7195;SDS011;3639;51.308;5.624;2022-08-21T00:53:43;5.43;;;4.57;;
7195;SDS011;3639;51.308;5.624;2022-08-21T00:56:11;4.47;;;4.07;;
7195;SDS011;3639;51.308;5.624;2022-08-21T00:58:39;6.30;;;4.13;;
7195;SDS011;3639;51.308;5.624;2022-08-21T01:01:07;4.73;;;3.93;;
7195;SDS011;3639;51.308;5.624;2022-08-21T01:03:33;4.17;;;3.77;;
7195;SDS011;3639;51.308;5.624;2022-08-21T01:06:00;6.07;;;4.37;;
7195;SDS011;3639;51.308;5.624;2022-08-21T01:08:29;5.57;;;3.80;;
7195;SDS011;3639;51.308;5.624;2022-08-21T01:10:55;6.87;;;4.43;;
7195;SDS011;3639;51.308;5.624;2022-08-21T01:13:23;7.13;;;4.70;;
7195;SDS011;3639;51.308;5.624;2022-08-21T01:15:50;6.70;;;4.50;;
7195;SDS011;3639;51.308;5.624;2022-08-21T01:18:19;6.03;;;5.43;;
7195;SDS011;3639;51.308;5.624;2022-08-21T01:23:35;9.40;;;6.10;;
7195;SDS011;3639;51.308;5.624;2022-08-21T01:26:03;6.93;;;5.40;;
7195;SDS011;3639;51.308;5.624;2022-08-21T01:28:31;6.83;;;5.40;;
7195;SDS011;3639;51.308;5.624;2022-08-21T01:31:01;9.07;;;5.40;;
7195;SDS011;3639;51.308;5.624;2022-08-21T01:33:29;6.73;;;5.07;;
7195;SDS011;3639;51.308;5.624;2022-08-21T01:35:55;7.33;;;4.67;;
7195;SDS011;3639;51.308;5.624;2022-08-21T01:38:21;10.43;;;4.90;;
7195;SDS011;3639;51.308;5.624;2022-08-21T01:40:47;5.83;;;5.20;;
7195;SDS011;3639;51.308;5.624;2022-08-21T01:43:13;5.17;;;4.40;;
7195;SDS011;3639;51.308;5.624;2022-08-21T01:45:39;6.10;;;5.50;;
7195;SDS011;3639;51.308;5.624;2022-08-21T01:48:04;6.87;;;4.70;;
7195;SDS011;3639;51.308;5.624;2022-08-21T01:50:30;8.40;;;5.27;;
7195;SDS011;3639;51.308;5.624;2022-08-21T01:52:56;7.13;;;5.50;;
7195;SDS011;3639;51.308;5.624;2022-08-21T01:55:22;6.80;;;5.07;;
7195;SDS011;3639;51.308;5.624;2022-08-21T01:57:48;7.37;;;5.27;;
7195;SDS011;3639;51.308;5.624;2022-08-21T02:00:15;6.50;;;4.90;;
7195;SDS011;3639;51.308;5.624;2022-08-21T02:02:43;7.20;;;5.30;;
7195;SDS011;3639;51.308;5.624;2022-08-21T02:05:10;6.50;;;5.00;;
7195;SDS011;3639;51.308;5.624;2022-08-21T02:07:37;7.53;;;5.47;;
7195;SDS011;3639;51.308;5.624;2022-08-21T02:10:05;8.07;;;5.47;;
7195;SDS011;3639;51.308;5.624;2022-08-21T02:12:32;5.53;;;5.03;;
7195;SDS011;3639;51.308;5.624;2022-08-21T02:14:58;6.97;;;5.63;;
7195;SDS011;3639;51.308;5.624;2022-08-21T02:17:23;10.30;;;5.00;;
7195;SDS011;3639;51.308;5.624;2022-08-21T02:19:49;6.50;;;5.27;;
7195;SDS011;3639;51.308;5.624;2022-08-21T02:22:15;5.97;;;4.83;;
7195;SDS011;3639;51.308;5.624;2022-08-21T02:24:40;7.77;;;5.27;;
7195;SDS011;3639;51.308;5.624;2022-08-21T02:27:06;6.77;;;5.33;;
7195;SDS011;3639;51.308;5.624;2022-08-21T02:29:32;5.93;;;4.60;;
7195;SDS011;3639;51.308;5.624;2022-08-21T02:31:57;6.50;;;5.33;;
7195;SDS011;3639;51.308;5.624;2022-08-21T02:34:23;6.90;;;4.97;;
7195;SDS011;3639;51.308;5.624;2022-08-21T02:36:49;7.03;;;5.10;;
7195;SDS011;3639;51.308;5.624;2022-08-21T02:39:15;7.60;;;5.67;;
7195;SDS011;3639;51.308;5.624;2022-08-21T02:41:40;6.63;;;5.30;;
7195;SDS011;3639;51.308;5.624;2022-08-21T02:44:06;10.37;;;6.20;;
7195;SDS011;3639;51.308;5.624;2022-08-21T02:46:31;7.20;;;5.90;;
7195;SDS011;3639;51.308;5.624;2022-08-21T02:49:00;6.13;;;5.20;;
7195;SDS011;3639;51.308;5.624;2022-08-21T02:51:26;6.70;;;5.07;;
7195;SDS011;3639;51.308;5.624;2022-08-21T02:53:51;6.23;;;5.03;;
7195;SDS011;3639;51.308;5.624;2022-08-21T02:56:18;6.30;;;4.90;;
7195;SDS011;3639;51.308;5.624;2022-08-21T02:58:47;8.10;;;4.93;;
7195;SDS011;3639;51.308;5.624;2022-08-21T03:01:14;7.60;;;5.60;;
7195;SDS011;3639;51.308;5.624;2022-08-21T03:03:41;7.10;;;5.50;;
7195;SDS011;3639;51.308;5.624;2022-08-21T03:06:09;8.47;;;5.77;;
7195;SDS011;3639;51.308;5.624;2022-08-21T03:08:36;7.70;;;4.83;;
7195;SDS011;3639;51.308;5.624;2022-08-21T03:11:03;7.10;;;5.27;;
7195;SDS011;3639;51.308;5.624;2022-08-21T03:13:28;7.33;;;5.73;;
7195;SDS011;3639;51.308;5.624;2022-08-21T03:15:54;6.77;;;5.10;;
7195;SDS011;3639;51.308;5.624;2022-08-21T03:18:20;6.70;;;4.80;;
7195;SDS011;3639;51.308;5.624;2022-08-21T03:20:46;6.03;;;5.43;;
7195;SDS011;3639;51.308;5.624;2022-08-21T03:23:12;6.87;;;5.23;;
7195;SDS011;3639;51.308;5.624;2022-08-21T03:25:40;7.30;;;5.50;;
7195;SDS011;3639;51.308;5.624;2022-08-21T03:28:08;6.70;;;4.93;;
7195;SDS011;3639;51.308;5.624;2022-08-21T03:30:35;5.47;;;4.97;;
7195;SDS011;3639;51.308;5.624;2022-08-21T03:33:01;4.83;;;4.43;;
7195;SDS011;3639;51.308;5.624;2022-08-21T03:35:27;7.53;;;5.23;;
7195;SDS011;3639;51.308;5.624;2022-08-21T03:37:54;10.20;;;5.70;;
7195;SDS011;3639;51.308;5.624;2022-08-21T03:40:20;5.83;;;4.73;;
7195;SDS011;3639;51.308;5.624;2022-08-21T03:42:47;7.87;;;4.67;;
7195;SDS011;3639;51.308;5.624;2022-08-21T03:45:16;6.10;;;4.83;;
7195;SDS011;3639;51.308;5.624;2022-08-21T03:47:56;8.27;;;4.57;;
7195;SDS011;3639;51.308;5.624;2022-08-21T03:50:25;5.67;;;4.80;;
7195;SDS011;3639;51.308;5.624;2022-08-21T03:52:53;8.77;;;5.60;;
7195;SDS011;3639;51.308;5.624;2022-08-21T03:55:20;6.33;;;4.73;;
7195;SDS011;3639;51.308;5.624;2022-08-21T03:57:46;6.83;;;5.00;;
7195;SDS011;3639;51.308;5.624;2022-08-21T04:00:13;7.80;;;5.40;;
7195;SDS011;3639;51.308;5.624;2022-08-21T04:02:39;6.40;;;5.07;;
7195;SDS011;3639;51.308;5.624;2022-08-21T04:05:06;6.97;;;4.90;;
7195;SDS011;3639;51.308;5.624;2022-08-21T04:07:32;10.67;;;5.03;;
7195;SDS011;3639;51.308;5.624;2022-08-21T04:09:58;10.33;;;4.47;;
7195;SDS011;3639;51.308;5.624;2022-08-21T04:12:24;6.10;;;4.47;;
7195;SDS011;3639;51.308;5.624;2022-08-21T04:14:50;7.43;;;5.23;;
7195;SDS011;3639;51.308;5.624;2022-08-21T04:17:18;5.70;;;5.13;;
7195;SDS011;3639;51.308;5.624;2022-08-21T04:19:44;7.73;;;5.80;;
7195;SDS011;3639;51.308;5.624;2022-08-21T04:24:37;6.13;;;4.30;;
7195;SDS011;3639;51.308;5.624;2022-08-21T04:27:02;5.67;;;4.67;;
7195;SDS011;3639;51.308;5.624;2022-08-21T04:29:28;6.13;;;4.97;;
7195;SDS011;3639;51.308;5.624;2022-08-21T04:31:54;10.83;;;5.87;;
7195;SDS011;3639;51.308;5.624;2022-08-21T04:34:20;9.47;;;5.23;;
7195;SDS011;3639;51.308;5.624;2022-08-21T04:36:45;7.43;;;5.97;;
7195;SDS011;3639;51.308;5.624;2022-08-21T04:39:11;8.77;;;5.10;;
7195;SDS011;3639;51.308;5.624;2022-08-21T04:41:37;6.70;;;5.17;;
7195;SDS011;3639;51.308;5.624;2022-08-21T04:44:03;9.73;;;4.43;;
7195;SDS011;3639;51.308;5.624;2022-08-21T04:46:29;7.87;;;5.00;;
7195;SDS011;3639;51.308;5.624;2022-08-21T04:48:55;15.87;;;5.27;;
7195;SDS011;3639;51.308;5.624;2022-08-21T04:51:25;8.37;;;5.10;;
7195;SDS011;3639;51.308;5.624;2022-08-21T04:53:59;7.37;;;5.30;;
7195;SDS011;3639;51.308;5.624;2022-08-21T04:59:00;8.37;;;5.80;;
7195;SDS011;3639;51.308;5.624;2022-08-21T05:01:29;10.00;;;5.23;;
7195;SDS011;3639;51.308;5.624;2022-08-21T05:03:59;7.43;;;4.40;;
7195;SDS011;3639;51.308;5.624;2022-08-21T05:06:28;7.40;;;5.10;;
7195;SDS011;3639;51.308;5.624;2022-08-21T05:08:58;10.77;;;4.90;;
7195;SDS011;3639;51.308;5.624;2022-08-21T05:11:24;7.23;;;5.43;;
7195;SDS011;3639;51.308;5.624;2022-08-21T05:13:50;6.60;;;5.30;;
7195;SDS011;3639;51.308;5.624;2022-08-21T05:16:16;10.20;;;4.87;;
7195;SDS011;3639;51.308;5.624;2022-08-21T05:18:42;8.10;;;5.77;;
7195;SDS011;3639;51.308;5.624;2022-08-21T05:21:08;8.87;;;4.93;;
7195;SDS011;3639;51.308;5.624;2022-08-21T05:23:34;8.23;;;5.17;;
7195;SDS011;3639;51.308;5.624;2022-08-21T05:26:01;9.97;;;5.27;;
7195;SDS011;3639;51.308;5.624;2022-08-21T05:28:27;8.93;;;5.07;;
7195;SDS011;3639;51.308;5.624;2022-08-21T05:30:52;8.30;;;5.47;;
7195;SDS011;3639;51.308;5.624;2022-08-21T05:33:18;6.60;;;4.77;;
7195;SDS011;3639;51.308;5.624;2022-08-21T05:35:44;6.47;;;4.43;;
7195;SDS011;3639;51.308;5.624;2022-08-21T05:38:10;8.00;;;5.00;;
7195;SDS011;3639;51.308;5.624;2022-08-21T05:40:36;5.47;;;4.10;;
7195;SDS011;3639;51.308;5.624;2022-08-21T05:43:02;8.20;;;4.73;;
7195;SDS011;3639;51.308;5.624;2022-08-21T05:45:29;5.90;;;4.47;;
7195;SDS011;3639;51.308;5.624;2022-08-21T05:47:57;6.43;;;4.90;;
7195;SDS011;3639;51.308;5.624;2022-08-21T05:50:23;4.77;;;3.73;;
7195;SDS011;3639;51.308;5.624;2022-08-21T05:52:49;5.27;;;4.13;;
7195;SDS011;3639;51.308;5.624;2022-08-21T05:55:14;4.93;;;4.10;;
7195;SDS011;3639;51.308;5.624;2022-08-21T05:57:40;4.27;;;3.87;;
7195;SDS011;3639;51.308;5.624;2022-08-21T06:00:07;8.93;;;3.93;;
7195;SDS011;3639;51.308;5.624;2022-08-21T06:02:35;7.93;;;4.00;;
7195;SDS011;3639;51.308;5.624;2022-08-21T06:05:01;9.23;;;3.97;;
7195;SDS011;3639;51.308;5.624;2022-08-21T06:07:26;6.40;;;4.40;;
7195;SDS011;3639;51.308;5.624;2022-08-21T06:09:52;6.83;;;4.27;;
7195;SDS011;3639;51.308;5.624;2022-08-21T06:12:17;12.03;;;3.97;;
7195;SDS011;3639;51.308;5.624;2022-08-21T06:14:43;4.83;;;4.00;;
7195;SDS011;3639;51.308;5.624;2022-08-21T06:17:10;7.83;;;3.40;;
7195;SDS011;3639;51.308;5.624;2022-08-21T06:19:36;4.07;;;3.27;;
7195;SDS011;3639;51.308;5.624;2022-08-21T06:22:03;8.27;;;3.47;;
7195;SDS011;3639;51.308;5.624;2022-08-21T06:24:29;3.50;;;3.07;;
7195;SDS011;3639;51.308;5.624;2022-08-21T06:26:55;8.60;;;4.23;;
7195;SDS011;3639;51.308;5.624;2022-08-21T06:29:21;7.23;;;4.00;;
7195;SDS011;3639;51.308;5.624;2022-08-21T06:31:49;13.57;;;7.37;;
7195;SDS011;3639;51.308;5.624;2022-08-21T06:34:16;6.27;;;3.53;;
7195;SDS011;3639;51.308;5.624;2022-08-21T06:36:42;6.13;;;2.33;;
7195;SDS011;3639;51.308;5.624;2022-08-21T06:39:10;3.10;;;2.80;;
7195;SDS011;3639;51.308;5.624;2022-08-21T06:41:38;4.23;;;2.43;;
7195;SDS011;3639;51.308;5.624;2022-08-21T06:44:05;2.97;;;2.50;;
7195;SDS011;3639;51.308;5.624;2022-08-21T06:46:32;4.10;;;2.13;;
7195;SDS011;3639;51.308;5.624;2022-08-21T06:48:58;2.53;;;2.00;;
7195;SDS011;3639;51.308;5.624;2022-08-21T06:51:24;4.23;;;2.47;;
7195;SDS011;3639;51.308;5.624;2022-08-21T06:53:51;4.20;;;2.40;;
7195;SDS011;3639;51.308;5.624;2022-08-21T06:56:17;3.40;;;2.23;;
7195;SDS011;3639;51.308;5.624;2022-08-21T06:58:43;3.20;;;2.10;;
7195;SDS011;3639;51.308;5.624;2022-08-21T07:01:09;4.63;;;2.13;;
7195;SDS011;3639;51.308;5.624;2022-08-21T07:03:36;3.67;;;2.47;;
7195;SDS011;3639;51.308;5.624;2022-08-21T07:06:07;5.00;;;2.23;;
7195;SDS011;3639;51.308;5.624;2022-08-21T07:08:34;5.63;;;2.00;;
7195;SDS011;3639;51.308;5.624;2022-08-21T07:11:02;5.37;;;2.20;;
7195;SDS011;3639;51.308;5.624;2022-08-21T07:13:32;5.73;;;2.07;;
7195;SDS011;3639;51.308;5.624;2022-08-21T07:15:58;3.83;;;2.03;;
7195;SDS011;3639;51.308;5.624;2022-08-21T07:18:24;5.40;;;2.20;;
7195;SDS011;3639;51.308;5.624;2022-08-21T07:20:50;4.30;;;2.00;;
7195;SDS011;3639;51.308;5.624;2022-08-21T07:23:21;4.00;;;1.93;;
7195;SDS011;3639;51.308;5.624;2022-08-21T07:25:51;3.80;;;2.20;;
7195;SDS011;3639;51.308;5.624;2022-08-21T07:28:16;4.07;;;2.00;;
7195;SDS011;3639;51.308;5.624;2022-08-21T07:30:42;4.23;;;2.13;;
7195;SDS011;3639;51.308;5.624;2022-08-21T07:33:08;4.00;;;2.03;;
7195;SDS011;3639;51.308;5.624;2022-08-21T07:35:33;3.10;;;1.80;;
7195;SDS011;3639;51.308;5.624;2022-08-21T07:37:59;3.87;;;1.70;;
7195;SDS011;3639;51.308;5.624;2022-08-21T07:40:25;3.67;;;1.63;;
7195;SDS011;3639;51.308;5.624;2022-08-21T07:42:51;3.67;;;1.80;;
7195;SDS011;3639;51.308;5.624;2022-08-21T07:45:17;2.43;;;1.30;;
7195;SDS011;3639;51.308;5.624;2022-08-21T07:47:45;3.10;;;1.97;;
7195;SDS011;3639;51.308;5.624;2022-08-21T07:50:12;5.77;;;1.50;;
7195;SDS011;3639;51.308;5.624;2022-08-21T07:52:39;4.90;;;1.90;;
7195;SDS011;3639;51.308;5.624;2022-08-21T07:55:07;3.73;;;1.40;;
7195;SDS011;3639;51.308;5.624;2022-08-21T07:57:34;1.30;;;1.20;;
7195;SDS011;3639;51.308;5.624;2022-08-21T08:00:00;6.43;;;1.50;;
7195;SDS011;3639;51.308;5.624;2022-08-21T08:02:27;2.93;;;1.73;;
7195;SDS011;3639;51.308;5.624;2022-08-21T08:04:54;3.13;;;1.70;;
7195;SDS011;3639;51.308;5.624;2022-08-21T08:07:23;2.67;;;1.60;;
7195;SDS011;3639;51.308;5.624;2022-08-21T08:09:48;3.17;;;1.70;;
7195;SDS011;3639;51.308;5.624;2022-08-21T08:12:14;3.73;;;1.70;;
7195;SDS011;3639;51.308;5.624;2022-08-21T08:14:39;3.60;;;1.40;;
7195;SDS011;3639;51.308;5.624;2022-08-21T08:17:05;3.93;;;1.60;;
7195;SDS011;3639;51.308;5.624;2022-08-21T08:19:30;5.43;;;1.87;;
7195;SDS011;3639;51.308;5.624;2022-08-21T08:21:56;1.83;;;1.67;;
7195;SDS011;3639;51.308;5.624;2022-08-21T08:24:22;4.23;;;1.50;;
7195;SDS011;3639;51.308;5.624;2022-08-21T08:26:47;3.60;;;1.53;;
7195;SDS011;3639;51.308;5.624;2022-08-21T08:29:13;5.40;;;1.70;;
7195;SDS011;3639;51.308;5.624;2022-08-21T08:31:39;4.90;;;1.83;;
7195;SDS011;3639;51.308;5.624;2022-08-21T08:34:05;2.73;;;1.47;;
7195;SDS011;3639;51.308;5.624;2022-08-21T08:36:32;3.57;;;1.40;;
7195;SDS011;3639;51.308;5.624;2022-08-21T08:38:59;4.07;;;1.40;;
7195;SDS011;3639;51.308;5.624;2022-08-21T08:41:25;3.67;;;1.40;;
7195;SDS011;3639;51.308;5.624;2022-08-21T08:43:53;5.63;;;2.07;;
7195;SDS011;3639;51.308;5.624;2022-08-21T08:46:23;3.07;;;1.20;;
7195;SDS011;3639;51.308;5.624;2022-08-21T08:48:58;2.37;;;1.70;;
7195;SDS011;3639;51.308;5.624;2022-08-21T08:51:34;2.93;;;1.90;;
7195;SDS011;3639;51.308;5.624;2022-08-21T08:54:09;2.57;;;1.43;;
7195;SDS011;3639;51.308;5.624;2022-08-21T08:56:39;2.40;;;1.27;;
7195;SDS011;3639;51.308;5.624;2022-08-21T08:59:13;4.70;;;1.63;;
7195;SDS011;3639;51.308;5.624;2022-08-21T09:01:42;2.07;;;1.27;;
7195;SDS011;3639;51.308;5.624;2022-08-21T09:04:09;2.47;;;1.40;;
7195;SDS011;3639;51.308;5.624;2022-08-21T09:06:58;2.47;;;1.50;;
7195;SDS011;3639;51.308;5.624;2022-08-21T09:12:09;3.10;;;1.23;;
7195;SDS011;3639;51.308;5.624;2022-08-21T09:17:30;4.10;;;1.57;;
7195;SDS011;3639;51.308;5.624;2022-08-21T09:20:11;3.10;;;1.20;;
7195;SDS011;3639;51.308;5.624;2022-08-21T09:28:25;3.73;;;1.00;;
7195;SDS011;3639;51.308;5.624;2022-08-21T09:30:51;2.40;;;1.00;;
7195;SDS011;3639;51.308;5.624;2022-08-21T09:33:20;2.97;;;1.13;;
7195;SDS011;3639;51.308;5.624;2022-08-21T09:35:50;4.87;;;1.43;;
7195;SDS011;3639;51.308;5.624;2022-08-21T09:38:24;2.40;;;1.10;;
7195;SDS011;3639;51.308;5.624;2022-08-21T09:40:56;2.63;;;1.23;;
7195;SDS011;3639;51.308;5.624;2022-08-21T09:43:27;3.07;;;1.10;;
7195;SDS011;3639;51.308;5.624;2022-08-21T09:48:54;2.70;;;1.43;;
7195;SDS011;3639;51.308;5.624;2022-08-21T09:51:31;2.73;;;1.03;;
7195;SDS011;3639;51.308;5.624;2022-08-21T09:56:31;1.30;;;1.03;;
7195;SDS011;3639;51.308;5.624;2022-08-21T10:01:58;2.07;;;1.03;;
7195;SDS011;3639;51.308;5.624;2022-08-21T10:04:28;2.67;;;1.20;;
7195;SDS011;3639;51.308;5.624;2022-08-21T10:07:10;1.83;;;0.90;;
7195;SDS011;3639;51.308;5.624;2022-08-21T10:09:37;38.70;;;3.67;;
7195;SDS011;3639;51.308;5.624;2022-08-21T10:17:26;1.90;;;1.13;;
7195;SDS011;3639;51.308;5.624;2022-08-21T10:27:49;2.37;;;0.80;;
7195;SDS011;3639;51.308;5.624;2022-08-21T10:42:10;2.40;;;1.13;;
7195;SDS011;3639;51.308;5.624;2022-08-21T10:47:47;3.30;;;1.17;;
7195;SDS011;3639;51.308;5.624;2022-08-21T10:56:25;1.67;;;0.80;;
7195;SDS011;3639;51.308;5.624;2022-08-21T11:02:18;1.73;;;1.08;;
7195;SDS011;3639;51.308;5.624;2022-08-21T11:07:38;1.20;;;1.08;;
7195;SDS011;3639;51.308;5.624;2022-08-21T11:10:21;1.33;;;0.80;;
7195;SDS011;3639;51.308;5.624;2022-08-21T11:12:54;1.70;;;0.93;;
7195;SDS011;3639;51.308;5.624;2022-08-21T11:18:01;2.22;;;0.90;;
7195;SDS011;3639;51.308;5.624;2022-08-21T11:20:43;3.58;;;1.33;;
7195;SDS011;3639;51.308;5.624;2022-08-21T11:26:41;1.98;;;0.70;;
7195;SDS011;3639;51.308;5.624;2022-08-21T11:29:30;0.98;;;0.82;;
7195;SDS011;3639;51.308;5.624;2022-08-21T11:41:03;2.00;;;0.80;;
7195;SDS011;3639;51.308;5.624;2022-08-21T11:46:53;1.27;;;0.80;;
7195;SDS011;3639;51.308;5.624;2022-08-21T11:49:26;2.03;;;0.70;;
7195;SDS011;3639;51.308;5.624;2022-08-21T11:57:52;2.17;;;1.00;;
7195;SDS011;3639;51.308;5.624;2022-08-21T12:00:26;1.48;;;0.90;;
7195;SDS011;3639;51.308;5.624;2022-08-21T12:03:13;2.10;;;0.85;;
7195;SDS011;3639;51.308;5.624;2022-08-21T12:05:42;1.80;;;0.90;;
7195;SDS011;3639;51.308;5.624;2022-08-21T12:08:33;0.82;;;0.70;;
7195;SDS011;3639;51.308;5.624;2022-08-21T12:13:56;1.25;;;0.90;;
7195;SDS011;3639;51.308;5.624;2022-08-21T12:16:37;1.52;;;0.80;;
7195;SDS011;3639;51.308;5.624;2022-08-21T12:19:27;1.02;;;0.85;;
7195;SDS011;3639;51.308;5.624;2022-08-21T12:24:35;1.13;;;0.70;;
7195;SDS011;3639;51.308;5.624;2022-08-21T12:29:49;2.28;;;0.85;;
7195;SDS011;3639;51.308;5.624;2022-08-21T12:33:04;1.60;;;0.80;;
7195;SDS011;3639;51.308;5.624;2022-08-21T12:35:20;1.27;;;0.93;;
7195;SDS011;3639;51.308;5.624;2022-08-21T12:38:01;1.27;;;0.90;;
7195;SDS011;3639;51.308;5.624;2022-08-21T12:40:53;2.50;;;1.13;;
7195;SDS011;3639;51.308;5.624;2022-08-21T12:43:37;2.35;;;0.80;;
7195;SDS011;3639;51.308;5.624;2022-08-21T12:46:18;2.28;;;1.20;;
7195;SDS011;3639;51.308;5.624;2022-08-21T12:51:43;2.60;;;0.77;;
7195;SDS011;3639;51.308;5.624;2022-08-21T12:54:27;1.75;;;1.20;;
7195;SDS011;3639;51.308;5.624;2022-08-21T12:56:56;3.90;;;1.20;;
7195;SDS011;3639;51.308;5.624;2022-08-21T12:59:22;2.13;;;0.95;;
7195;SDS011;3639;51.308;5.624;2022-08-21T13:01:49;2.33;;;1.00;;
7195;SDS011;3639;51.308;5.624;2022-08-21T13:04:19;2.38;;;1.10;;
7195;SDS011;3639;51.308;5.624;2022-08-21T13:07:07;1.52;;;0.82;;
7195;SDS011;3639;51.308;5.624;2022-08-21T13:09:48;2.03;;;0.90;;
7195;SDS011;3639;51.308;5.624;2022-08-21T13:12:17;2.17;;;1.02;;
7195;SDS011;3639;51.308;5.624;2022-08-21T13:14:46;2.88;;;1.50;;
7195;SDS011;3639;51.308;5.624;2022-08-21T13:17:14;4.85;;;1.10;;
7195;SDS011;3639;51.308;5.624;2022-08-21T13:20:45;4.85;;;1.05;;
7195;SDS011;3639;51.308;5.624;2022-08-21T13:22:50;2.65;;;1.20;;
7195;SDS011;3639;51.308;5.624;2022-08-21T13:25:17;3.40;;;1.33;;
7195;SDS011;3639;51.308;5.624;2022-08-21T13:27:56;1.08;;;0.93;;
7195;SDS011;3639;51.308;5.624;2022-08-21T13:30:34;2.00;;;1.00;;
7195;SDS011;3639;51.308;5.624;2022-08-21T13:33:05;1.55;;;1.10;;
7195;SDS011;3639;51.308;5.624;2022-08-21T13:36:09;2.72;;;1.27;;
7195;SDS011;3639;51.308;5.624;2022-08-21T13:38:25;3.60;;;1.17;;
7195;SDS011;3639;51.308;5.624;2022-08-21T13:41:02;2.60;;;1.23;;
7195;SDS011;3639;51.308;5.624;2022-08-21T13:43:45;2.35;;;1.20;;
7195;SDS011;3639;51.308;5.624;2022-08-21T13:46:14;3.95;;;2.00;;
7195;SDS011;3639;51.308;5.624;2022-08-21T13:48:40;3.05;;;1.67;;
7195;SDS011;3639;51.308;5.624;2022-08-21T13:51:07;2.13;;;1.30;;
7195;SDS011;3639;51.308;5.624;2022-08-21T13:53:35;2.38;;;1.00;;
7195;SDS011;3639;51.308;5.624;2022-08-21T13:56:20;1.95;;;1.17;;
7195;SDS011;3639;51.308;5.624;2022-08-21T13:58:48;3.28;;;1.27;;
7195;SDS011;3639;51.308;5.624;2022-08-21T14:01:57;1.45;;;1.05;;
7195;SDS011;3639;51.308;5.624;2022-08-21T14:04:35;2.38;;;1.30;;
7195;SDS011;3639;51.308;5.624;2022-08-21T14:07:14;2.97;;;1.20;;
7195;SDS011;3639;51.308;5.624;2022-08-21T14:09:43;2.97;;;1.40;;
7195;SDS011;3639;51.308;5.624;2022-08-21T14:12:15;1.67;;;1.40;;
7195;SDS011;3639;51.308;5.624;2022-08-21T14:14:43;2.72;;;1.10;;
7195;SDS011;3639;51.308;5.624;2022-08-21T14:17:11;3.50;;;1.10;;
7195;SDS011;3639;51.308;5.624;2022-08-21T14:19:40;4.80;;;1.23;;
7195;SDS011;3639;51.308;5.624;2022-08-21T14:27:33;3.35;;;1.17;;
7195;SDS011;3639;51.308;5.624;2022-08-21T14:30:13;2.83;;;1.30;;
7195;SDS011;3639;51.308;5.624;2022-08-21T14:32:43;1.90;;;1.10;;
7195;SDS011;3639;51.308;5.624;2022-08-21T14:35:10;2.75;;;1.30;;
7195;SDS011;3639;51.308;5.624;2022-08-21T14:37:36;3.50;;;1.27;;
7195;SDS011;3639;51.308;5.624;2022-08-21T14:40:03;2.08;;;1.45;;
7195;SDS011;3639;51.308;5.624;2022-08-21T14:42:29;2.38;;;1.52;;
7195;SDS011;3639;51.308;5.624;2022-08-21T14:44:56;3.42;;;1.33;;
7195;SDS011;3639;51.308;5.624;2022-08-21T14:47:24;2.05;;;1.70;;
7195;SDS011;3639;51.308;5.624;2022-08-21T14:49:50;2.90;;;1.10;;
7195;SDS011;3639;51.308;5.624;2022-08-21T14:52:18;7.57;;;1.58;;
7195;SDS011;3639;51.308;5.624;2022-08-21T14:54:44;1.98;;;1.10;;
7195;SDS011;3639;51.308;5.624;2022-08-21T14:57:10;3.15;;;1.20;;
7195;SDS011;3639;51.308;5.624;2022-08-21T14:59:37;2.30;;;1.35;;
7195;SDS011;3639;51.308;5.624;2022-08-21T15:02:04;5.82;;;1.65;;
7195;SDS011;3639;51.308;5.624;2022-08-21T15:04:30;1.75;;;1.27;;
7195;SDS011;3639;51.308;5.624;2022-08-21T15:06:57;1.80;;;1.17;;
7195;SDS011;3639;51.308;5.624;2022-08-21T15:09:22;5.97;;;1.58;;
7195;SDS011;3639;51.308;5.624;2022-08-21T15:11:49;2.25;;;1.38;;
7195;SDS011;3639;51.308;5.624;2022-08-21T15:14:24;5.18;;;1.42;;
7195;SDS011;3639;51.308;5.624;2022-08-21T15:16:51;5.22;;;1.45;;
7195;SDS011;3639;51.308;5.624;2022-08-21T15:19:17;2.40;;;1.50;;
7195;SDS011;3639;51.308;5.624;2022-08-21T15:21:43;2.65;;;1.60;;
7195;SDS011;3639;51.308;5.624;2022-08-21T15:24:09;3.17;;;1.00;;
7195;SDS011;3639;51.308;5.624;2022-08-21T15:26:35;2.45;;;1.20;;
7195;SDS011;3639;51.308;5.624;2022-08-21T15:29:01;3.25;;;1.40;;
7195;SDS011;3639;51.308;5.624;2022-08-21T15:31:29;3.28;;;1.20;;
7195;SDS011;3639;51.308;5.624;2022-08-21T15:33:55;3.03;;;1.25;;
7195;SDS011;3639;51.308;5.624;2022-08-21T15:36:20;3.53;;;1.30;;
7195;SDS011;3639;51.308;5.624;2022-08-21T15:38:46;3.08;;;1.70;;
7195;SDS011;3639;51.308;5.624;2022-08-21T15:41:12;3.13;;;1.75;;
7195;SDS011;3639;51.308;5.624;2022-08-21T15:43:48;2.85;;;1.60;;
7195;SDS011;3639;51.308;5.624;2022-08-21T15:46:17;1.95;;;1.52;;
7195;SDS011;3639;51.308;5.624;2022-08-21T15:48:44;3.03;;;1.75;;
7195;SDS011;3639;51.308;5.624;2022-08-21T15:51:11;2.78;;;1.83;;
7195;SDS011;3639;51.308;5.624;2022-08-21T15:53:38;2.47;;;1.90;;
7195;SDS011;3639;51.308;5.624;2022-08-21T15:56:26;2.55;;;2.17;;
7195;SDS011;3639;51.308;5.624;2022-08-21T15:58:53;3.00;;;1.92;;
7195;SDS011;3639;51.308;5.624;2022-08-21T16:01:24;2.92;;;1.75;;
7195;SDS011;3639;51.308;5.624;2022-08-21T16:03:50;5.93;;;2.00;;
7195;SDS011;3639;51.308;5.624;2022-08-21T16:06:18;2.95;;;1.70;;
7195;SDS011;3639;51.308;5.624;2022-08-21T16:08:44;4.15;;;1.80;;
7195;SDS011;3639;51.308;5.624;2022-08-21T16:11:11;3.08;;;2.22;;
7195;SDS011;3639;51.308;5.624;2022-08-21T16:13:39;3.35;;;2.20;;
7195;SDS011;3639;51.308;5.624;2022-08-21T16:16:10;5.53;;;3.20;;
7195;SDS011;3639;51.308;5.624;2022-08-21T16:18:38;3.53;;;2.50;;
7195;SDS011;3639;51.308;5.624;2022-08-21T16:21:04;3.20;;;2.78;;
7195;SDS011;3639;51.308;5.624;2022-08-21T16:23:31;3.95;;;2.72;;
7195;SDS011;3639;51.308;5.624;2022-08-21T16:25:59;6.55;;;3.17;;
7195;SDS011;3639;51.308;5.624;2022-08-21T16:28:27;5.22;;;4.05;;
7195;SDS011;3639;51.308;5.624;2022-08-21T16:30:53;4.72;;;3.40;;
7195;SDS011;3639;51.308;5.624;2022-08-21T16:33:35;9.55;;;3.22;;
7195;SDS011;3639;51.308;5.624;2022-08-21T16:36:04;4.72;;;2.72;;
7195;SDS011;3639;51.308;5.624;2022-08-21T16:38:31;4.45;;;2.97;;
7195;SDS011;3639;51.308;5.624;2022-08-21T16:40:58;7.47;;;3.03;;
7195;SDS011;3639;51.308;5.624;2022-08-21T16:43:25;6.05;;;2.47;;
7195;SDS011;3639;51.308;5.624;2022-08-21T16:45:53;5.03;;;2.50;;
7195;SDS011;3639;51.308;5.624;2022-08-21T16:48:20;6.68;;;3.20;;
7195;SDS011;3639;51.308;5.624;2022-08-21T16:50:47;5.00;;;3.00;;
7195;SDS011;3639;51.308;5.624;2022-08-21T16:53:13;2.88;;;2.30;;
7195;SDS011;3639;51.308;5.624;2022-08-21T16:55:39;2.72;;;2.42;;
7195;SDS011;3639;51.308;5.624;2022-08-21T16:58:07;5.97;;;2.67;;
7195;SDS011;3639;51.308;5.624;2022-08-21T17:00:36;3.08;;;2.55;;
7195;SDS011;3639;51.308;5.624;2022-08-21T17:03:02;7.70;;;2.90;;
7195;SDS011;3639;51.308;5.624;2022-08-21T17:05:28;6.78;;;2.53;;
7195;SDS011;3639;51.308;5.624;2022-08-21T17:07:53;5.55;;;2.53;;
7195;SDS011;3639;51.308;5.624;2022-08-21T17:10:19;4.93;;;2.30;;
7195;SDS011;3639;51.308;5.624;2022-08-21T17:12:46;5.32;;;2.47;;
7195;SDS011;3639;51.308;5.624;2022-08-21T17:15:22;3.05;;;2.20;;